createdAt,value
2023-02-16T00:02:03.411Z,4.56
2023-02-16T00:04:35.601Z,5.35
2023-02-16T00:07:05.136Z,5.61
2023-02-16T00:09:34.693Z,5.46
2023-02-16T00:12:17.033Z,5.29
2023-02-16T00:14:46.613Z,5.67
2023-02-16T00:17:16.148Z,5.24
2023-02-16T00:19:48.291Z,4.34
2023-02-16T00:22:17.806Z,4.67
2023-02-16T00:24:47.349Z,4.26
2023-02-16T00:27:19.067Z,4.60
2023-02-16T00:29:48.638Z,4.88
2023-02-16T00:32:18.207Z,4.87
2023-02-16T00:34:50.415Z,4.40
2023-02-16T00:37:20.018Z,4.51
2023-02-16T00:39:51.443Z,3.66
2023-02-16T00:42:24.096Z,4.04
2023-02-16T00:44:57.602Z,4.06
2023-02-16T00:47:32.809Z,3.62
2023-02-16T00:50:04.946Z,4.11
2023-02-16T00:52:37.110Z,4.28
2023-02-16T00:55:09.541Z,4.52
2023-02-16T00:57:43.277Z,3.56
2023-02-16T01:00:19.787Z,3.40
2023-02-16T01:02:51.502Z,3.97
2023-02-16T01:05:25.911Z,3.82
2023-02-16T01:08:08.061Z,3.74
2023-02-16T01:11:06.306Z,4.47
2023-02-16T01:13:40.822Z,3.41
2023-02-16T01:16:16.901Z,4.04
2023-02-16T01:18:47.482Z,4.05
2023-02-16T01:21:21.885Z,4.46
2023-02-16T01:23:51.533Z,3.40
2023-02-16T01:26:23.079Z,3.98
2023-02-16T01:28:52.818Z,4.55
2023-02-16T01:31:24.237Z,4.38
2023-02-16T01:33:53.884Z,4.64
2023-02-16T01:36:31.337Z,4.65
2023-02-16T01:39:01.474Z,4.66
2023-02-16T01:41:47.066Z,4.73
2023-02-16T01:44:19.362Z,4.75
2023-02-16T01:46:53.750Z,4.61
2023-02-16T01:49:23.802Z,4.93
2023-02-16T01:52:00.837Z,4.40
2023-02-16T01:54:37.864Z,4.43
2023-02-16T01:57:16.814Z,4.77
2023-02-16T02:00:20.482Z,4.44
2023-02-16T02:02:52.912Z,4.22
2023-02-16T02:05:37.232Z,3.82
2023-02-16T02:08:33.262Z,3.80
2023-02-16T02:11:12.279Z,3.23
2023-02-16T02:13:47.120Z,3.28
2023-02-16T02:16:20.850Z,2.62
2023-02-16T02:18:50.666Z,0.81
2023-02-16T02:21:57.577Z,1.31
2023-02-16T02:24:52.024Z,1.55
2023-02-16T02:27:28.830Z,2.39
2023-02-16T02:30:22.273Z,2.71
2023-02-16T02:33:07.473Z,1.98
2023-02-16T02:35:50.977Z,2.99
2023-02-16T02:38:29.029Z,1.77
2023-02-16T02:41:07.165Z,2.05
2023-02-16T02:43:46.032Z,2.27
2023-02-16T02:46:24.816Z,2.50
2023-02-16T02:48:54.538Z,3.08
2023-02-16T02:51:33.953Z,3.09
2023-02-16T02:54:27.184Z,3.06
2023-02-16T02:57:18.056Z,2.77
2023-02-16T03:00:07.829Z,2.72
2023-02-16T03:02:41.383Z,3.30
2023-02-16T03:05:14.667Z,3.25
2023-02-16T03:07:52.019Z,3.23
2023-02-16T03:10:38.605Z,2.73
2023-02-16T03:13:14.280Z,2.68
2023-02-16T03:15:47.282Z,2.83
2023-02-16T03:18:31.369Z,2.57
2023-02-16T03:21:14.403Z,3.44
2023-02-16T03:23:59.060Z,3.33
2023-02-16T03:26:43.203Z,3.29
2023-02-16T03:29:22.743Z,3.36
2023-02-16T03:31:58.109Z,2.22
2023-02-16T03:34:28.545Z,2.80
2023-02-16T03:37:01.189Z,3.25
2023-02-16T03:39:32.133Z,2.66
2023-02-16T03:42:01.706Z,2.54
2023-02-16T03:44:31.247Z,2.77
2023-02-16T03:47:03.338Z,2.87
2023-02-16T03:49:32.934Z,2.79
2023-02-16T03:52:02.508Z,2.85
2023-02-16T03:54:32.054Z,2.49
2023-02-16T03:57:01.581Z,1.39
2023-02-16T03:59:31.338Z,2.29
2023-02-16T04:02:03.704Z,2.86
2023-02-16T04:04:33.496Z,1.52
2023-02-16T04:07:03.155Z,2.27
2023-02-16T04:09:32.683Z,2.38
2023-02-16T04:12:14.758Z,3.12
2023-02-16T04:14:44.287Z,2.75
2023-02-16T04:17:16.452Z,3.02
2023-02-16T04:19:46.010Z,3.44
2023-02-16T04:22:15.522Z,3.78
2023-02-16T04:24:45.117Z,3.64
2023-02-16T04:27:14.649Z,3.77
2023-02-16T04:29:44.284Z,4.36
2023-02-16T04:32:16.496Z,4.88
2023-02-16T04:34:46.210Z,5.12
2023-02-16T04:37:16.091Z,5.47
2023-02-16T04:39:45.617Z,5.18
2023-02-16T04:42:15.170Z,5.13
2023-02-16T04:44:45.505Z,5.08
2023-02-16T04:47:17.684Z,4.71
2023-02-16T04:49:49.835Z,4.65
2023-02-16T04:52:19.976Z,4.91
2023-02-16T04:54:49.517Z,5.22
2023-02-16T04:57:21.436Z,5.43
2023-02-16T04:59:51.001Z,5.46
2023-02-16T05:02:23.145Z,5.39
2023-02-16T05:04:52.690Z,5.44
2023-02-16T05:07:22.290Z,5.26
2023-02-16T05:09:52.046Z,5.52
2023-02-16T05:12:34.214Z,5.46
2023-02-16T05:15:03.852Z,5.54
2023-02-16T05:17:36.053Z,6.17
2023-02-16T05:20:06.046Z,6.07
2023-02-16T05:22:39.060Z,6.01
2023-02-16T05:25:09.361Z,6.23
2023-02-16T05:27:38.887Z,6.16
2023-02-16T05:30:09.783Z,5.75
2023-02-16T05:32:41.948Z,5.95
2023-02-16T05:35:11.551Z,6.21
2023-02-16T05:37:42.715Z,6.32
2023-02-16T05:40:13.927Z,6.28
2023-02-16T05:42:43.646Z,6.40
2023-02-16T05:45:13.497Z,6.36
2023-02-16T05:47:47.241Z,6.32
2023-02-16T05:50:17.016Z,5.86
2023-02-16T05:52:46.618Z,5.94
2023-02-16T05:55:16.381Z,6.41
2023-02-16T05:57:46.051Z,6.89
2023-02-16T06:00:17.657Z,6.59
2023-02-16T06:02:49.869Z,6.85
2023-02-16T06:05:19.688Z,6.61
2023-02-16T06:07:49.312Z,6.77
2023-02-16T06:10:19.003Z,6.54
2023-02-16T06:12:48.643Z,6.29
2023-02-16T06:15:18.307Z,5.32
2023-02-16T06:17:50.606Z,4.61
2023-02-16T06:20:20.675Z,4.52
2023-02-16T06:22:50.230Z,4.40
2023-02-16T06:25:20.367Z,4.37
2023-02-16T06:27:50.163Z,3.82
2023-02-16T06:30:20.309Z,4.27
2023-02-16T06:32:52.488Z,3.67
2023-02-16T06:35:22.132Z,3.04
2023-02-16T06:37:51.797Z,3.95
2023-02-16T06:40:21.564Z,4.51
2023-02-16T06:42:51.602Z,3.60
2023-02-16T06:45:21.199Z,3.43
2023-02-16T06:48:08.366Z,3.91
2023-02-16T06:51:06.712Z,4.34
2023-02-16T06:53:36.334Z,4.54
2023-02-16T06:56:06.453Z,3.00
2023-02-16T06:58:36.007Z,3.29
2023-02-16T07:01:06.019Z,4.01
2023-02-16T07:06:56.843Z,4.37
2023-02-16T07:09:26.591Z,4.39
2023-02-16T07:11:56.512Z,3.16
2023-02-16T07:14:26.070Z,3.95
2023-02-16T07:16:57.534Z,3.56
2023-02-16T07:19:27.120Z,4.71
2023-02-16T07:21:59.227Z,5.01
2023-02-16T07:24:28.837Z,5.44
2023-02-16T07:26:58.956Z,4.23
2023-02-16T07:29:28.496Z,4.44
2023-02-16T07:31:58.147Z,5.28
2023-02-16T07:34:27.870Z,6.67
2023-02-16T07:37:00.706Z,7.29
2023-02-16T07:39:31.856Z,7.62
2023-02-16T07:42:01.555Z,8.19
2023-02-16T07:44:31.192Z,7.16
2023-02-16T07:47:00.737Z,7.20
2023-02-16T07:49:30.417Z,7.65
2023-02-16T07:52:02.542Z,8.40
2023-02-16T07:54:33.788Z,6.99
2023-02-16T07:57:03.458Z,6.27
2023-02-16T07:59:33.046Z,6.51
2023-02-16T08:02:02.676Z,6.38
2023-02-16T08:04:32.265Z,6.05
2023-02-16T08:07:04.389Z,5.82
2023-02-16T08:09:34.214Z,5.87
2023-02-16T08:12:03.769Z,6.68
2023-02-16T08:14:33.287Z,7.07
2023-02-16T08:17:02.880Z,7.38
2023-02-16T08:19:32.639Z,8.19
2023-02-16T08:22:05.186Z,7.35
2023-02-16T08:24:35.613Z,7.04
2023-02-16T08:27:07.425Z,7.52
2023-02-16T08:29:37.321Z,7.84
2023-02-16T08:32:08.091Z,7.42
2023-02-16T08:34:38.808Z,8.37
2023-02-16T08:37:12.060Z,9.11
2023-02-16T08:39:42.295Z,8.27
2023-02-16T08:42:14.475Z,8.42
2023-02-16T08:44:44.920Z,8.31
2023-02-16T08:47:14.591Z,8.73
2023-02-16T08:49:44.611Z,8.12
2023-02-16T08:52:16.758Z,8.27
2023-02-16T08:54:46.397Z,7.85
2023-02-16T08:57:16.123Z,7.76
2023-02-16T08:59:45.654Z,7.29
2023-02-16T09:02:15.244Z,7.59
2023-02-16T09:04:45.885Z,7.62
2023-02-16T09:07:20.917Z,7.25
2023-02-16T09:09:51.354Z,7.86
2023-02-16T09:12:20.924Z,8.37
2023-02-16T09:14:50.581Z,8.58
2023-02-16T09:17:20.209Z,8.26
2023-02-16T09:19:49.835Z,8.48
2023-02-16T09:22:22.561Z,8.39
2023-02-16T09:24:52.080Z,8.69
2023-02-16T09:27:21.678Z,9.29
2023-02-16T09:29:51.626Z,9.15
2023-02-16T09:32:21.183Z,9.40
2023-02-16T09:34:51.383Z,10.23
2023-02-16T09:37:23.784Z,10.58
2023-02-16T09:39:53.341Z,10.14
2023-02-16T09:42:31.012Z,10.17
2023-02-16T09:45:09.785Z,10.50
2023-02-16T09:47:42.998Z,10.53
2023-02-16T09:50:27.814Z,9.80
2023-02-16T09:53:17.600Z,10.20
2023-02-16T09:55:54.808Z,10.38
2023-02-16T09:58:30.209Z,10.18
2023-02-16T10:01:06.083Z,10.84
2023-02-16T10:03:43.041Z,10.87
2023-02-16T10:06:31.107Z,11.66
2023-02-16T10:09:08.976Z,12.08
2023-02-16T10:11:49.024Z,11.55
2023-02-16T10:14:30.999Z,11.34
2023-02-16T10:17:10.431Z,11.43
2023-02-16T10:19:43.779Z,10.44
2023-02-16T10:22:19.064Z,10.75
2023-02-16T10:25:02.046Z,10.99
2023-02-16T10:27:39.594Z,10.74
2023-02-16T10:30:17.653Z,11.09
2023-02-16T10:32:58.595Z,11.24
2023-02-16T10:35:34.656Z,12.04
2023-02-16T10:38:15.484Z,11.69
2023-02-16T10:40:58.027Z,12.09
2023-02-16T10:43:42.402Z,12.09
2023-02-16T10:46:14.375Z,12.54
2023-02-16T10:48:44.049Z,13.43
2023-02-16T10:51:17.950Z,13.37
2023-02-16T10:53:50.996Z,12.98
2023-02-16T10:56:42.739Z,13.18
2023-02-16T10:59:20.390Z,13.72
2023-02-16T11:01:54.030Z,13.66
2023-02-16T11:04:39.805Z,13.41
2023-02-16T11:07:12.289Z,14.12
2023-02-16T11:09:44.158Z,13.78
2023-02-16T11:12:27.302Z,14.43
2023-02-16T11:14:59.668Z,14.31
2023-02-16T11:17:29.507Z,14.63
2023-02-16T11:20:05.709Z,14.54
2023-02-16T11:22:38.145Z,14.30
2023-02-16T11:25:23.697Z,13.88
2023-02-16T11:27:58.562Z,13.85
2023-02-16T11:30:35.500Z,14.13
2023-02-16T11:33:07.780Z,14.24
2023-02-16T11:35:45.236Z,14.45
2023-02-16T11:38:31.116Z,14.53
2023-02-16T11:41:02.565Z,14.34
2023-02-16T11:43:38.684Z,14.57
2023-02-16T11:46:10.356Z,14.35
2023-02-16T11:48:39.949Z,13.85
2023-02-16T11:51:11.748Z,14.18
2023-02-16T11:53:44.365Z,13.84
2023-02-16T11:56:24.761Z,13.85
2023-02-16T11:59:19.202Z,13.76
2023-02-16T12:02:05.405Z,13.83
2023-02-16T12:04:52.769Z,13.93
2023-02-16T12:07:33.038Z,13.94
2023-02-16T12:10:10.254Z,14.33
2023-02-16T12:12:51.204Z,14.36
2023-02-16T12:15:30.427Z,14.49
2023-02-16T12:18:15.854Z,13.91
2023-02-16T12:20:54.860Z,14.20
2023-02-16T12:23:40.946Z,13.94
2023-02-16T12:26:34.188Z,13.79
2023-02-16T12:29:16.308Z,13.91
2023-02-16T12:32:04.378Z,13.68
2023-02-16T12:34:48.646Z,13.86
2023-02-16T12:37:25.138Z,13.65
2023-02-16T12:40:05.523Z,13.72
2023-02-16T12:42:48.389Z,13.73
2023-02-16T12:45:22.265Z,13.81
2023-02-16T12:48:00.258Z,13.94
2023-02-16T12:50:32.079Z,13.93
2023-02-16T12:53:08.572Z,13.86
2023-02-16T12:55:43.116Z,13.71
2023-02-16T12:58:19.743Z,13.60
2023-02-16T13:00:52.358Z,13.92
2023-02-16T13:03:37.265Z,13.79
2023-02-16T13:06:17.244Z,13.90
2023-02-16T13:08:51.188Z,13.93
2023-02-16T13:11:28.433Z,13.96
2023-02-16T13:14:03.454Z,13.91
2023-02-16T13:16:43.314Z,13.87
2023-02-16T13:19:17.411Z,13.80
2023-02-16T13:22:16.905Z,13.97
2023-02-16T13:24:54.176Z,13.86
2023-02-16T13:27:35.039Z,13.70
2023-02-16T13:30:27.760Z,13.54
2023-02-16T13:33:14.301Z,13.35
2023-02-16T13:36:32.244Z,13.27
2023-02-16T13:39:27.798Z,13.02
2023-02-16T13:42:15.140Z,12.95
2023-02-16T13:44:48.899Z,12.86
2023-02-16T13:47:25.585Z,12.77
2023-02-16T13:50:00.425Z,12.89
2023-02-16T13:52:35.958Z,13.04
2023-02-16T13:55:08.537Z,13.10
2023-02-16T13:58:00.266Z,12.67
2023-02-16T14:00:33.155Z,12.24
2023-02-16T14:03:05.301Z,12.25
2023-02-16T14:05:38.376Z,12.42
2023-02-16T14:08:23.734Z,12.27
2023-02-16T14:11:05.803Z,12.64
2023-02-16T14:13:46.821Z,12.66
2023-02-16T14:16:31.608Z,12.53
2023-02-16T14:19:03.639Z,13.02
2023-02-16T14:21:42.992Z,12.88
2023-02-16T14:24:32.782Z,12.67
2023-02-16T14:27:04.114Z,12.79
2023-02-16T14:29:37.566Z,12.76
2023-02-16T14:32:18.332Z,13.09
2023-02-16T14:34:55.464Z,13.11
2023-02-16T14:37:36.817Z,13.67
2023-02-16T14:40:24.139Z,13.15
2023-02-16T14:43:01.024Z,13.30
2023-02-16T14:46:02.737Z,12.53
2023-02-16T14:48:49.610Z,12.52
2023-02-16T14:52:01.110Z,12.73
2023-02-16T14:54:49.620Z,12.70
2023-02-16T14:57:26.952Z,12.58
2023-02-16T15:00:02.364Z,12.23
2023-02-16T15:02:35.552Z,12.36
2023-02-16T15:05:20.243Z,12.38
2023-02-16T15:07:52.419Z,12.53
2023-02-16T15:10:26.933Z,12.72
2023-02-16T15:12:59.520Z,12.88
2023-02-16T15:15:34.256Z,12.39
2023-02-16T15:18:03.951Z,12.88
2023-02-16T15:20:36.630Z,12.65
2023-02-16T15:23:08.342Z,12.79
2023-02-16T15:25:39.850Z,12.91
2023-02-16T15:28:26.169Z,13.07
2023-02-16T15:30:57.505Z,13.28
2023-02-16T15:33:37.370Z,12.88
2023-02-16T15:36:12.075Z,12.82
2023-02-16T15:38:44.246Z,12.53
2023-02-16T15:41:17.848Z,12.49
2023-02-16T15:43:52.734Z,12.36
2023-02-16T15:46:27.678Z,12.51
2023-02-16T15:48:57.385Z,12.05
2023-02-16T15:51:31.644Z,12.18
2023-02-16T15:54:03.668Z,11.81
2023-02-16T15:56:48.323Z,11.99
2023-02-16T15:59:35.781Z,12.25
2023-02-16T16:02:13.444Z,11.95
2023-02-16T16:04:45.600Z,11.19
2023-02-16T16:07:16.982Z,11.86
2023-02-16T16:21:21.908Z,10.93
2023-02-16T16:24:01.343Z,11.08
2023-02-16T16:26:35.669Z,10.98
2023-02-16T16:29:07.297Z,11.04
2023-02-16T16:31:43.672Z,11.70
2023-02-16T16:34:33.612Z,11.56
2023-02-16T16:37:08.404Z,10.84
2023-02-16T16:39:42.526Z,10.46
2023-02-16T16:42:24.916Z,10.71
2023-02-16T16:45:05.516Z,10.51
2023-02-16T16:47:39.285Z,10.40
2023-02-16T16:50:31.457Z,10.08
2023-02-16T16:53:04.202Z,10.41
2023-02-16T16:55:36.559Z,10.89
2023-02-16T16:58:08.703Z,11.12
2023-02-16T17:00:41.980Z,10.38
2023-02-16T17:03:16.910Z,10.58
2023-02-16T17:05:47.507Z,11.20
2023-02-16T17:08:19.684Z,10.50
2023-02-16T17:10:49.279Z,10.36
2023-02-16T17:13:22.790Z,10.51
2023-02-16T17:15:56.655Z,9.72
2023-02-16T17:18:26.393Z,10.00
2023-02-16T17:20:56.055Z,10.61
2023-02-16T17:23:28.213Z,10.05
2023-02-16T17:25:57.799Z,10.50
2023-02-16T17:28:28.728Z,10.38
2023-02-16T17:30:58.313Z,10.54
2023-02-16T17:33:27.848Z,10.88
2023-02-16T17:35:57.818Z,10.96
2023-02-16T17:38:30.084Z,10.61
2023-02-16T17:41:01.158Z,11.27
2023-02-16T17:43:30.863Z,11.29
2023-02-16T17:46:04.828Z,10.32
2023-02-16T17:48:34.656Z,10.81
2023-02-16T17:51:04.991Z,10.75
2023-02-16T17:53:37.149Z,10.40
2023-02-16T17:56:07.709Z,10.26
2023-02-16T17:58:37.470Z,10.64
2023-02-16T18:01:07.548Z,10.03
2023-02-16T18:03:37.177Z,10.65
2023-02-16T18:06:07.505Z,10.40
2023-02-16T18:08:39.746Z,10.22
2023-02-16T18:11:09.485Z,10.94
2023-02-16T18:13:39.547Z,11.07
2023-02-16T18:16:10.409Z,10.96
2023-02-16T18:18:39.990Z,10.11
2023-02-16T18:21:10.071Z,10.70
2023-02-16T18:23:42.521Z,11.21
2023-02-16T18:26:16.613Z,11.63
2023-02-16T18:28:46.385Z,10.79
2023-02-16T18:31:16.061Z,11.12
2023-02-16T18:33:46.817Z,11.26
2023-02-16T18:36:16.452Z,10.61
2023-02-16T18:38:48.987Z,10.70
2023-02-16T18:41:18.563Z,10.34
2023-02-16T18:43:48.200Z,10.25
2023-02-16T18:46:18.674Z,10.87
2023-02-16T18:48:48.280Z,10.71
2023-02-16T18:51:18.854Z,9.98
2023-02-16T18:53:50.989Z,9.92
2023-02-16T18:56:20.589Z,9.79
2023-02-16T18:58:50.240Z,9.73
2023-02-16T19:01:28.509Z,9.56
2023-02-16T19:03:58.763Z,9.37
2023-02-16T19:06:28.796Z,9.42
2023-02-16T19:09:01.333Z,9.32
2023-02-16T19:11:32.782Z,9.69
2023-02-16T19:14:02.332Z,9.34
2023-02-16T19:16:31.962Z,9.42
2023-02-16T19:19:01.597Z,9.36
2023-02-16T19:21:31.191Z,9.37
2023-02-16T19:24:03.403Z,9.40
2023-02-16T19:26:33.051Z,9.42
2023-02-16T19:29:02.692Z,9.39
2023-02-16T19:31:35.432Z,9.44
2023-02-16T19:34:05.150Z,9.54
2023-02-16T19:36:34.998Z,9.33
2023-02-16T19:39:07.156Z,9.43
2023-02-16T19:41:38.984Z,9.52
2023-02-16T19:44:09.543Z,10.01
2023-02-16T19:46:39.121Z,9.93
2023-02-16T19:49:09.317Z,10.11
2023-02-16T19:51:38.931Z,9.57
2023-02-16T19:54:11.682Z,10.02
2023-02-16T19:56:41.600Z,10.65
2023-02-16T19:59:11.507Z,10.45
2023-02-16T20:01:43.473Z,10.50
2023-02-16T20:04:13.259Z,10.16
2023-02-16T20:06:43.063Z,9.57
2023-02-16T20:09:17.700Z,9.93
2023-02-16T20:11:47.498Z,10.48
2023-02-16T20:14:17.284Z,10.38
2023-02-16T20:16:46.874Z,10.65
2023-02-16T20:19:16.978Z,9.58
2023-02-16T20:21:47.142Z,9.68
2023-02-16T20:24:23.048Z,9.40
2023-02-16T20:26:52.732Z,9.64
2023-02-16T20:29:22.900Z,9.93
2023-02-16T20:31:54.730Z,9.67
2023-02-16T20:34:25.194Z,9.60
2023-02-16T20:36:55.170Z,10.13
2023-02-16T20:39:28.042Z,10.38
2023-02-16T20:41:58.308Z,9.37
2023-02-16T20:44:28.023Z,9.37
2023-02-16T20:46:57.674Z,10.12
2023-02-16T20:49:27.326Z,10.26
2023-02-16T20:51:56.971Z,9.66
2023-02-16T20:54:29.119Z,9.56
2023-02-16T20:56:58.861Z,10.34
2023-02-16T20:59:28.493Z,10.54
2023-02-16T21:01:58.489Z,10.38
2023-02-16T21:04:28.087Z,10.44
2023-02-16T21:06:57.649Z,10.31
2023-02-16T21:09:29.850Z,9.89
2023-02-16T21:11:59.438Z,10.59
2023-02-16T21:14:28.997Z,9.09
2023-02-16T21:16:58.584Z,9.36
2023-02-16T21:19:28.250Z,10.00
2023-02-16T21:21:57.940Z,9.15
2023-02-16T21:24:30.070Z,9.49
2023-02-16T21:26:59.660Z,9.64
2023-02-16T21:29:29.268Z,10.06
2023-02-16T21:31:58.833Z,9.67
2023-02-16T21:34:28.595Z,9.78
2023-02-16T21:36:58.258Z,10.26
2023-02-16T21:39:42.798Z,9.73
2023-02-16T21:42:12.398Z,9.79
2023-02-16T21:44:43.242Z,10.15
2023-02-16T21:47:27.164Z,9.28
2023-02-16T21:49:56.716Z,9.86
2023-02-16T21:52:26.630Z,8.79
2023-02-16T21:55:26.177Z,9.62
2023-02-16T21:57:59.264Z,9.95
2023-02-16T22:00:29.329Z,9.39
2023-02-16T22:02:58.872Z,8.94
2023-02-16T22:05:28.455Z,9.60
2023-02-16T22:07:58.817Z,9.89
2023-02-16T22:10:31.656Z,10.02
2023-02-16T22:13:01.594Z,9.81
2023-02-16T22:15:31.407Z,10.13
2023-02-16T22:18:00.949Z,10.28
2023-02-16T22:20:30.678Z,10.34
2023-02-16T22:23:00.252Z,10.13
2023-02-16T22:25:32.475Z,10.69
2023-02-16T22:28:02.021Z,9.81
2023-02-16T22:30:31.606Z,9.97
2023-02-16T22:33:01.242Z,10.09
2023-02-16T22:35:30.958Z,10.16
2023-02-16T22:38:00.530Z,9.81
2023-02-16T22:40:32.695Z,9.66
2023-02-16T22:43:02.294Z,9.44
2023-02-16T22:45:34.662Z,9.62
2023-02-16T22:48:04.263Z,9.51
2023-02-16T22:50:33.868Z,9.57
2023-02-16T22:53:03.557Z,9.58
2023-02-16T22:55:35.684Z,9.55
2023-02-16T22:58:05.423Z,9.57
2023-02-16T23:00:35.070Z,9.52
2023-02-16T23:03:04.705Z,9.52
2023-02-16T23:05:34.444Z,9.53
2023-02-16T23:08:04.056Z,9.58
2023-02-16T23:10:37.816Z,9.57
2023-02-16T23:13:08.452Z,9.74
2023-02-16T23:15:38.664Z,9.68
2023-02-16T23:18:08.400Z,9.69
2023-02-16T23:20:38.219Z,9.76
2023-02-16T23:23:10.275Z,9.81
2023-02-16T23:25:46.964Z,9.74
2023-02-16T23:28:17.285Z,9.62
2023-02-16T23:30:48.965Z,9.61
2023-02-16T23:33:18.640Z,9.56
2023-02-16T23:35:48.256Z,9.54
2023-02-16T23:38:18.227Z,9.58
2023-02-16T23:40:58.177Z,9.40
2023-02-16T23:43:28.308Z,9.52
2023-02-16T23:46:01.739Z,9.40
2023-02-16T23:48:32.081Z,9.54
2023-02-16T23:51:01.682Z,9.66
2023-02-16T23:53:31.817Z,9.58
2023-02-16T23:56:07.234Z,9.59
2023-02-16T23:58:41.242Z,9.51
